sensor_id;sensor_type;location;lat;lon;timestamp;P1;durP1;ratioP1;P2;durP2;ratioP2
25615;SDS011;13482;48.234;13.006;2024-02-28T00:02:08;7.93;;;5.53;;
25615;SDS011;13482;48.234;13.006;2024-02-28T00:04:35;8.10;;;5.80;;
25615;SDS011;13482;48.234;13.006;2024-02-28T00:07:02;8.00;;;5.53;;
25615;SDS011;13482;48.234;13.006;2024-02-28T00:09:30;7.80;;;5.63;;
25615;SDS011;13482;48.234;13.006;2024-02-28T00:11:57;7.43;;;5.43;;
25615;SDS011;13482;48.234;13.006;2024-02-28T00:14:25;6.93;;;5.13;;
25615;SDS011;13482;48.234;13.006;2024-02-28T00:16:52;7.78;;;5.50;;
25615;SDS011;13482;48.234;13.006;2024-02-28T00:19:20;7.60;;;5.40;;
25615;SDS011;13482;48.234;13.006;2024-02-28T00:21:48;7.55;;;5.07;;
25615;SDS011;13482;48.234;13.006;2024-02-28T00:24:16;6.68;;;5.00;;
25615;SDS011;13482;48.234;13.006;2024-02-28T00:26:43;7.30;;;5.07;;
25615;SDS011;13482;48.234;13.006;2024-02-28T00:29:12;6.72;;;4.90;;
25615;SDS011;13482;48.234;13.006;2024-02-28T00:31:39;6.20;;;4.30;;
25615;SDS011;13482;48.234;13.006;2024-02-28T00:34:06;6.13;;;4.35;;
25615;SDS011;13482;48.234;13.006;2024-02-28T00:36:35;6.35;;;4.65;;
25615;SDS011;13482;48.234;13.006;2024-02-28T00:39:20;6.15;;;4.53;;
25615;SDS011;13482;48.234;13.006;2024-02-28T00:41:48;5.57;;;4.03;;
25615;SDS011;13482;48.234;13.006;2024-02-28T00:44:15;5.72;;;4.30;;
25615;SDS011;13482;48.234;13.006;2024-02-28T00:46:42;5.45;;;4.03;;
25615;SDS011;13482;48.234;13.006;2024-02-28T00:49:10;5.38;;;4.13;;
25615;SDS011;13482;48.234;13.006;2024-02-28T00:51:37;6.70;;;4.63;;
25615;SDS011;13482;48.234;13.006;2024-02-28T00:54:05;5.90;;;4.53;;
25615;SDS011;13482;48.234;13.006;2024-02-28T00:56:32;7.03;;;4.85;;
25615;SDS011;13482;48.234;13.006;2024-02-28T00:59:00;6.60;;;5.15;;
25615;SDS011;13482;48.234;13.006;2024-02-28T01:01:27;6.65;;;4.90;;
25615;SDS011;13482;48.234;13.006;2024-02-28T01:03:55;8.43;;;5.72;;
25615;SDS011;13482;48.234;13.006;2024-02-28T01:06:22;8.32;;;5.82;;
25615;SDS011;13482;48.234;13.006;2024-02-28T01:08:49;8.52;;;5.45;;
25615;SDS011;13482;48.234;13.006;2024-02-28T01:11:17;9.45;;;5.80;;
25615;SDS011;13482;48.234;13.006;2024-02-28T01:13:44;6.63;;;4.97;;
25615;SDS011;13482;48.234;13.006;2024-02-28T01:16:11;6.47;;;4.93;;
25615;SDS011;13482;48.234;13.006;2024-02-28T01:18:39;5.72;;;4.50;;
25615;SDS011;13482;48.234;13.006;2024-02-28T01:21:06;6.93;;;5.32;;
25615;SDS011;13482;48.234;13.006;2024-02-28T01:23:35;6.43;;;4.85;;
25615;SDS011;13482;48.234;13.006;2024-02-28T01:26:03;7.03;;;4.75;;
25615;SDS011;13482;48.234;13.006;2024-02-28T01:28:32;7.85;;;5.45;;
25615;SDS011;13482;48.234;13.006;2024-02-28T01:31:00;7.03;;;5.18;;
25615;SDS011;13482;48.234;13.006;2024-02-28T01:33:27;7.25;;;4.60;;
25615;SDS011;13482;48.234;13.006;2024-02-28T01:35:55;6.65;;;4.82;;
25615;SDS011;13482;48.234;13.006;2024-02-28T01:38:25;7.88;;;4.70;;
25615;SDS011;13482;48.234;13.006;2024-02-28T01:40:53;7.03;;;5.30;;
25615;SDS011;13482;48.234;13.006;2024-02-28T01:43:21;6.50;;;4.88;;
25615;SDS011;13482;48.234;13.006;2024-02-28T01:45:49;7.45;;;5.47;;
25615;SDS011;13482;48.234;13.006;2024-02-28T01:48:17;8.55;;;5.22;;
25615;SDS011;13482;48.234;13.006;2024-02-28T01:50:45;7.70;;;5.07;;
25615;SDS011;13482;48.234;13.006;2024-02-28T01:53:13;7.45;;;5.60;;
25615;SDS011;13482;48.234;13.006;2024-02-28T01:55:44;6.88;;;5.25;;
25615;SDS011;13482;48.234;13.006;2024-02-28T01:58:11;8.20;;;5.68;;
25615;SDS011;13482;48.234;13.006;2024-02-28T02:00:39;7.60;;;5.63;;
25615;SDS011;13482;48.234;13.006;2024-02-28T02:03:07;6.70;;;5.05;;
25615;SDS011;13482;48.234;13.006;2024-02-28T02:05:34;8.48;;;5.90;;
25615;SDS011;13482;48.234;13.006;2024-02-28T02:08:01;7.75;;;5.53;;
25615;SDS011;13482;48.234;13.006;2024-02-28T02:10:29;9.07;;;5.53;;
25615;SDS011;13482;48.234;13.006;2024-02-28T02:13:04;7.07;;;5.20;;
25615;SDS011;13482;48.234;13.006;2024-02-28T02:15:32;5.90;;;4.60;;
25615;SDS011;13482;48.234;13.006;2024-02-28T02:18:00;6.97;;;5.30;;
25615;SDS011;13482;48.234;13.006;2024-02-28T02:20:29;7.50;;;5.20;;
25615;SDS011;13482;48.234;13.006;2024-02-28T02:23:01;7.10;;;5.38;;
25615;SDS011;13482;48.234;13.006;2024-02-28T02:25:28;7.82;;;5.53;;
25615;SDS011;13482;48.234;13.006;2024-02-28T02:27:56;7.68;;;5.60;;
25615;SDS011;13482;48.234;13.006;2024-02-28T02:30:23;7.05;;;5.25;;
25615;SDS011;13482;48.234;13.006;2024-02-28T02:32:50;8.10;;;5.43;;
25615;SDS011;13482;48.234;13.006;2024-02-28T02:35:18;6.60;;;5.20;;
25615;SDS011;13482;48.234;13.006;2024-02-28T02:37:45;7.55;;;5.18;;
25615;SDS011;13482;48.234;13.006;2024-02-28T02:40:15;7.07;;;5.35;;
25615;SDS011;13482;48.234;13.006;2024-02-28T02:42:42;8.05;;;5.60;;
25615;SDS011;13482;48.234;13.006;2024-02-28T02:45:09;6.97;;;5.35;;
25615;SDS011;13482;48.234;13.006;2024-02-28T02:47:37;7.80;;;5.40;;
25615;SDS011;13482;48.234;13.006;2024-02-28T02:50:04;6.50;;;4.70;;
25615;SDS011;13482;48.234;13.006;2024-02-28T02:52:33;7.95;;;5.35;;
25615;SDS011;13482;48.234;13.006;2024-02-28T02:55:00;7.50;;;5.43;;
25615;SDS011;13482;48.234;13.006;2024-02-28T02:57:28;7.20;;;5.30;;
25615;SDS011;13482;48.234;13.006;2024-02-28T02:59:57;7.07;;;5.32;;
25615;SDS011;13482;48.234;13.006;2024-02-28T03:02:24;7.00;;;4.90;;
25615;SDS011;13482;48.234;13.006;2024-02-28T03:04:52;5.05;;;3.92;;
25615;SDS011;13482;48.234;13.006;2024-02-28T03:07:19;6.60;;;4.75;;
25615;SDS011;13482;48.234;13.006;2024-02-28T03:09:47;7.28;;;4.93;;
25615;SDS011;13482;48.234;13.006;2024-02-28T03:12:14;7.65;;;5.50;;
25615;SDS011;13482;48.234;13.006;2024-02-28T03:14:41;7.20;;;4.95;;
25615;SDS011;13482;48.234;13.006;2024-02-28T03:17:09;7.75;;;5.18;;
25615;SDS011;13482;48.234;13.006;2024-02-28T03:19:36;7.00;;;4.82;;
25615;SDS011;13482;48.234;13.006;2024-02-28T03:22:05;6.65;;;4.72;;
25615;SDS011;13482;48.234;13.006;2024-02-28T03:24:32;6.13;;;4.43;;
25615;SDS011;13482;48.234;13.006;2024-02-28T03:27:02;7.07;;;4.93;;
25615;SDS011;13482;48.234;13.006;2024-02-28T03:29:30;6.95;;;5.18;;
25615;SDS011;13482;48.234;13.006;2024-02-28T03:31:58;6.93;;;4.90;;
25615;SDS011;13482;48.234;13.006;2024-02-28T03:34:25;5.85;;;4.30;;
25615;SDS011;13482;48.234;13.006;2024-02-28T03:36:53;6.93;;;4.88;;
25615;SDS011;13482;48.234;13.006;2024-02-28T03:39:20;7.03;;;5.18;;
25615;SDS011;13482;48.234;13.006;2024-02-28T03:41:47;7.65;;;5.53;;
25615;SDS011;13482;48.234;13.006;2024-02-28T03:44:15;7.88;;;5.45;;
25615;SDS011;13482;48.234;13.006;2024-02-28T03:46:42;6.82;;;5.00;;
25615;SDS011;13482;48.234;13.006;2024-02-28T03:49:09;7.20;;;4.60;;
25615;SDS011;13482;48.234;13.006;2024-02-28T03:51:40;7.03;;;4.47;;
25615;SDS011;13482;48.234;13.006;2024-02-28T03:54:08;6.67;;;5.00;;
25615;SDS011;13482;48.234;13.006;2024-02-28T03:56:35;7.43;;;5.03;;
25615;SDS011;13482;48.234;13.006;2024-02-28T03:59:04;7.55;;;4.97;;
25615;SDS011;13482;48.234;13.006;2024-02-28T04:01:31;7.03;;;5.03;;
25615;SDS011;13482;48.234;13.006;2024-02-28T04:03:58;6.72;;;4.90;;
25615;SDS011;13482;48.234;13.006;2024-02-28T04:06:26;7.13;;;4.82;;
25615;SDS011;13482;48.234;13.006;2024-02-28T04:08:53;7.07;;;4.75;;
25615;SDS011;13482;48.234;13.006;2024-02-28T04:11:21;6.57;;;5.10;;
25615;SDS011;13482;48.234;13.006;2024-02-28T04:13:48;7.20;;;4.95;;
25615;SDS011;13482;48.234;13.006;2024-02-28T04:16:16;6.47;;;5.07;;
25615;SDS011;13482;48.234;13.006;2024-02-28T04:18:43;7.32;;;4.68;;
25615;SDS011;13482;48.234;13.006;2024-02-28T04:21:10;5.95;;;4.53;;
25615;SDS011;13482;48.234;13.006;2024-02-28T04:23:38;5.72;;;4.07;;
25615;SDS011;13482;48.234;13.006;2024-02-28T04:26:05;6.38;;;4.68;;
25615;SDS011;13482;48.234;13.006;2024-02-28T04:28:33;6.57;;;4.40;;
25615;SDS011;13482;48.234;13.006;2024-02-28T04:31:00;7.55;;;4.82;;
25615;SDS011;13482;48.234;13.006;2024-02-28T04:33:28;6.18;;;4.55;;
25615;SDS011;13482;48.234;13.006;2024-02-28T04:35:55;7.30;;;4.93;;
25615;SDS011;13482;48.234;13.006;2024-02-28T04:38:22;6.65;;;4.72;;
25615;SDS011;13482;48.234;13.006;2024-02-28T04:40:50;7.15;;;4.93;;
25615;SDS011;13482;48.234;13.006;2024-02-28T04:43:17;6.80;;;4.97;;
25615;SDS011;13482;48.234;13.006;2024-02-28T04:45:44;6.30;;;4.72;;
25615;SDS011;13482;48.234;13.006;2024-02-28T04:48:12;7.22;;;5.20;;
25615;SDS011;13482;48.234;13.006;2024-02-28T04:50:39;7.20;;;5.10;;
25615;SDS011;13482;48.234;13.006;2024-02-28T04:53:10;7.22;;;5.22;;
25615;SDS011;13482;48.234;13.006;2024-02-28T04:55:37;6.25;;;4.78;;
25615;SDS011;13482;48.234;13.006;2024-02-28T04:58:21;6.63;;;4.88;;
25615;SDS011;13482;48.234;13.006;2024-02-28T05:00:48;7.28;;;4.63;;
25615;SDS011;13482;48.234;13.006;2024-02-28T05:03:17;7.22;;;4.95;;
25615;SDS011;13482;48.234;13.006;2024-02-28T05:05:44;5.95;;;4.35;;
25615;SDS011;13482;48.234;13.006;2024-02-28T05:08:11;6.35;;;4.32;;
25615;SDS011;13482;48.234;13.006;2024-02-28T05:10:39;8.05;;;4.78;;
25615;SDS011;13482;48.234;13.006;2024-02-28T05:13:06;7.20;;;5.10;;
25615;SDS011;13482;48.234;13.006;2024-02-28T05:15:34;7.45;;;5.13;;
25615;SDS011;13482;48.234;13.006;2024-02-28T05:18:01;6.93;;;4.72;;
25615;SDS011;13482;48.234;13.006;2024-02-28T05:20:29;6.40;;;4.80;;
25615;SDS011;13482;48.234;13.006;2024-02-28T05:22:56;6.65;;;4.90;;
25615;SDS011;13482;48.234;13.006;2024-02-28T05:25:24;6.50;;;4.88;;
25615;SDS011;13482;48.234;13.006;2024-02-28T05:27:51;6.28;;;4.90;;
25615;SDS011;13482;48.234;13.006;2024-02-28T05:30:18;8.25;;;5.50;;
25615;SDS011;13482;48.234;13.006;2024-02-28T05:32:46;7.15;;;4.85;;
25615;SDS011;13482;48.234;13.006;2024-02-28T05:35:13;6.60;;;4.75;;
25615;SDS011;13482;48.234;13.006;2024-02-28T05:37:41;6.65;;;5.07;;
25615;SDS011;13482;48.234;13.006;2024-02-28T05:40:09;8.30;;;5.63;;
25615;SDS011;13482;48.234;13.006;2024-02-28T05:42:39;6.50;;;4.90;;
25615;SDS011;13482;48.234;13.006;2024-02-28T05:45:07;7.70;;;5.35;;
25615;SDS011;13482;48.234;13.006;2024-02-28T05:47:34;7.65;;;5.63;;
25615;SDS011;13482;48.234;13.006;2024-02-28T05:50:02;7.10;;;5.57;;
25615;SDS011;13482;48.234;13.006;2024-02-28T05:52:31;8.45;;;5.82;;
25615;SDS011;13482;48.234;13.006;2024-02-28T05:54:59;9.70;;;6.15;;
25615;SDS011;13482;48.234;13.006;2024-02-28T05:57:27;8.48;;;6.07;;
25615;SDS011;13482;48.234;13.006;2024-02-28T05:59:54;8.77;;;6.32;;
25615;SDS011;13482;48.234;13.006;2024-02-28T06:02:22;9.23;;;6.55;;
25615;SDS011;13482;48.234;13.006;2024-02-28T06:04:49;8.18;;;6.05;;
25615;SDS011;13482;48.234;13.006;2024-02-28T06:07:16;9.65;;;6.70;;
25615;SDS011;13482;48.234;13.006;2024-02-28T06:09:44;8.70;;;6.22;;
25615;SDS011;13482;48.234;13.006;2024-02-28T06:12:11;7.88;;;5.70;;
25615;SDS011;13482;48.234;13.006;2024-02-28T06:14:38;10.15;;;7.00;;
25615;SDS011;13482;48.234;13.006;2024-02-28T06:17:06;10.13;;;6.78;;
25615;SDS011;13482;48.234;13.006;2024-02-28T06:19:33;9.35;;;6.57;;
25615;SDS011;13482;48.234;13.006;2024-02-28T06:22:01;9.63;;;7.15;;
25615;SDS011;13482;48.234;13.006;2024-02-28T06:24:28;9.35;;;6.47;;
25615;SDS011;13482;48.234;13.006;2024-02-28T06:26:56;10.23;;;6.53;;
25615;SDS011;13482;48.234;13.006;2024-02-28T06:29:23;10.05;;;6.80;;
25615;SDS011;13482;48.234;13.006;2024-02-28T06:31:51;10.90;;;6.93;;
25615;SDS011;13482;48.234;13.006;2024-02-28T06:34:19;9.43;;;6.70;;
25615;SDS011;13482;48.234;13.006;2024-02-28T06:36:51;10.43;;;7.15;;
25615;SDS011;13482;48.234;13.006;2024-02-28T06:39:18;9.77;;;7.15;;
25615;SDS011;13482;48.234;13.006;2024-02-28T06:41:46;11.57;;;7.25;;
25615;SDS011;13482;48.234;13.006;2024-02-28T06:44:13;9.80;;;6.80;;
25615;SDS011;13482;48.234;13.006;2024-02-28T06:46:41;9.88;;;7.15;;
25615;SDS011;13482;48.234;13.006;2024-02-28T06:49:08;11.70;;;7.60;;
25615;SDS011;13482;48.234;13.006;2024-02-28T06:51:35;11.23;;;7.93;;
25615;SDS011;13482;48.234;13.006;2024-02-28T06:54:03;10.13;;;7.45;;
25615;SDS011;13482;48.234;13.006;2024-02-28T06:56:31;10.65;;;7.47;;
25615;SDS011;13482;48.234;13.006;2024-02-28T06:58:58;12.43;;;8.05;;
25615;SDS011;13482;48.234;13.006;2024-02-28T07:01:25;12.52;;;8.13;;
25615;SDS011;13482;48.234;13.006;2024-02-28T07:03:53;10.73;;;7.72;;
25615;SDS011;13482;48.234;13.006;2024-02-28T07:06:24;10.23;;;7.10;;
25615;SDS011;13482;48.234;13.006;2024-02-28T07:08:51;11.75;;;8.23;;
25615;SDS011;13482;48.234;13.006;2024-02-28T07:11:19;13.18;;;8.45;;
25615;SDS011;13482;48.234;13.006;2024-02-28T07:13:48;12.55;;;8.15;;
25615;SDS011;13482;48.234;13.006;2024-02-28T07:16:15;12.48;;;8.15;;
25615;SDS011;13482;48.234;13.006;2024-02-28T07:18:43;15.27;;;8.23;;
25615;SDS011;13482;48.234;13.006;2024-02-28T07:21:10;12.05;;;7.75;;
25615;SDS011;13482;48.234;13.006;2024-02-28T07:23:40;12.75;;;8.32;;
25615;SDS011;13482;48.234;13.006;2024-02-28T07:26:08;12.55;;;7.97;;
25615;SDS011;13482;48.234;13.006;2024-02-28T07:28:52;14.00;;;8.07;;
25615;SDS011;13482;48.234;13.006;2024-02-28T07:31:20;12.95;;;7.90;;
25615;SDS011;13482;48.234;13.006;2024-02-28T07:33:47;13.43;;;8.20;;
25615;SDS011;13482;48.234;13.006;2024-02-28T07:36:15;13.60;;;8.57;;
25615;SDS011;13482;48.234;13.006;2024-02-28T07:38:44;13.57;;;8.43;;
25615;SDS011;13482;48.234;13.006;2024-02-28T07:41:11;14.80;;;9.10;;
25615;SDS011;13482;48.234;13.006;2024-02-28T07:43:42;13.50;;;9.27;;
25615;SDS011;13482;48.234;13.006;2024-02-28T07:46:10;12.88;;;8.38;;
25615;SDS011;13482;48.234;13.006;2024-02-28T07:48:38;12.98;;;8.90;;
25615;SDS011;13482;48.234;13.006;2024-02-28T07:51:09;13.38;;;8.45;;
25615;SDS011;13482;48.234;13.006;2024-02-28T07:53:38;12.02;;;8.52;;
25615;SDS011;13482;48.234;13.006;2024-02-28T07:56:05;13.18;;;8.57;;
25615;SDS011;13482;48.234;13.006;2024-02-28T07:58:32;13.10;;;8.93;;
25615;SDS011;13482;48.234;13.006;2024-02-28T08:01:00;13.77;;;9.23;;
25615;SDS011;13482;48.234;13.006;2024-02-28T08:03:31;15.18;;;10.23;;
25615;SDS011;13482;48.234;13.006;2024-02-28T08:05:58;14.30;;;9.38;;
25615;SDS011;13482;48.234;13.006;2024-02-28T08:08:26;13.95;;;9.23;;
25615;SDS011;13482;48.234;13.006;2024-02-28T08:10:53;15.18;;;9.60;;
25615;SDS011;13482;48.234;13.006;2024-02-28T08:13:21;13.80;;;9.55;;
25615;SDS011;13482;48.234;13.006;2024-02-28T08:15:48;15.02;;;9.80;;
25615;SDS011;13482;48.234;13.006;2024-02-28T08:18:16;14.77;;;10.00;;
25615;SDS011;13482;48.234;13.006;2024-02-28T08:20:44;16.13;;;10.52;;
25615;SDS011;13482;48.234;13.006;2024-02-28T08:23:11;15.38;;;9.85;;
25615;SDS011;13482;48.234;13.006;2024-02-28T08:25:38;15.35;;;10.27;;
25615;SDS011;13482;48.234;13.006;2024-02-28T08:28:06;14.52;;;9.20;;
25615;SDS011;13482;48.234;13.006;2024-02-28T08:30:33;14.23;;;10.02;;
25615;SDS011;13482;48.234;13.006;2024-02-28T08:33:01;19.13;;;10.55;;
25615;SDS011;13482;48.234;13.006;2024-02-28T08:35:28;15.57;;;10.48;;
25615;SDS011;13482;48.234;13.006;2024-02-28T08:37:56;15.93;;;10.38;;
25615;SDS011;13482;48.234;13.006;2024-02-28T08:40:23;19.10;;;10.77;;
25615;SDS011;13482;48.234;13.006;2024-02-28T08:42:50;17.83;;;10.48;;
25615;SDS011;13482;48.234;13.006;2024-02-28T08:45:20;16.77;;;10.50;;
25615;SDS011;13482;48.234;13.006;2024-02-28T08:47:48;16.63;;;10.43;;
25615;SDS011;13482;48.234;13.006;2024-02-28T08:50:16;16.98;;;10.85;;
25615;SDS011;13482;48.234;13.006;2024-02-28T08:52:45;16.92;;;10.75;;
25615;SDS011;13482;48.234;13.006;2024-02-28T08:55:12;16.50;;;10.57;;
25615;SDS011;13482;48.234;13.006;2024-02-28T08:57:40;19.45;;;12.25;;
25615;SDS011;13482;48.234;13.006;2024-02-28T09:00:07;16.63;;;10.63;;
25615;SDS011;13482;48.234;13.006;2024-02-28T09:02:36;15.20;;;10.38;;
25615;SDS011;13482;48.234;13.006;2024-02-28T09:05:04;18.73;;;11.32;;
25615;SDS011;13482;48.234;13.006;2024-02-28T09:07:32;17.88;;;10.98;;
25615;SDS011;13482;48.234;13.006;2024-02-28T09:10:05;18.15;;;11.88;;
25615;SDS011;13482;48.234;13.006;2024-02-28T09:12:34;16.83;;;11.43;;
25615;SDS011;13482;48.234;13.006;2024-02-28T09:15:01;15.75;;;11.07;;
25615;SDS011;13482;48.234;13.006;2024-02-28T09:17:29;18.23;;;11.25;;
25615;SDS011;13482;48.234;13.006;2024-02-28T09:19:58;18.80;;;12.20;;
25615;SDS011;13482;48.234;13.006;2024-02-28T09:22:27;16.70;;;11.43;;
25615;SDS011;13482;48.234;13.006;2024-02-28T09:24:55;18.15;;;11.75;;
25615;SDS011;13482;48.234;13.006;2024-02-28T09:27:23;15.73;;;10.70;;
25615;SDS011;13482;48.234;13.006;2024-02-28T09:29:51;17.67;;;11.98;;
25615;SDS011;13482;48.234;13.006;2024-02-28T09:32:19;17.50;;;11.88;;
25615;SDS011;13482;48.234;13.006;2024-02-28T09:34:46;19.48;;;11.90;;
25615;SDS011;13482;48.234;13.006;2024-02-28T09:37:14;17.85;;;11.00;;
25615;SDS011;13482;48.234;13.006;2024-02-28T09:39:44;18.35;;;11.60;;
25615;SDS011;13482;48.234;13.006;2024-02-28T09:42:12;19.95;;;12.02;;
25615;SDS011;13482;48.234;13.006;2024-02-28T09:44:41;17.42;;;11.85;;
25615;SDS011;13482;48.234;13.006;2024-02-28T09:47:10;15.38;;;10.25;;
25615;SDS011;13482;48.234;13.006;2024-02-28T09:49:38;17.42;;;11.27;;
25615;SDS011;13482;48.234;13.006;2024-02-28T09:52:06;17.55;;;11.15;;
25615;SDS011;13482;48.234;13.006;2024-02-28T09:54:33;17.10;;;11.05;;
25615;SDS011;13482;48.234;13.006;2024-02-28T09:57:01;17.65;;;11.23;;
25615;SDS011;13482;48.234;13.006;2024-02-28T09:59:31;16.73;;;11.38;;
25615;SDS011;13482;48.234;13.006;2024-02-28T10:02:17;17.02;;;11.48;;
25615;SDS011;13482;48.234;13.006;2024-02-28T10:04:48;17.30;;;11.40;;
25615;SDS011;13482;48.234;13.006;2024-02-28T10:07:16;19.00;;;11.93;;
25615;SDS011;13482;48.234;13.006;2024-02-28T10:09:44;19.30;;;12.85;;
25615;SDS011;13482;48.234;13.006;2024-02-28T10:12:13;19.98;;;12.68;;
25615;SDS011;13482;48.234;13.006;2024-02-28T10:14:41;18.75;;;12.02;;
25615;SDS011;13482;48.234;13.006;2024-02-28T10:17:08;20.00;;;11.95;;
25615;SDS011;13482;48.234;13.006;2024-02-28T10:19:36;18.17;;;11.45;;
25615;SDS011;13482;48.234;13.006;2024-02-28T10:22:05;19.00;;;12.10;;
25615;SDS011;13482;48.234;13.006;2024-02-28T10:24:33;17.65;;;10.98;;
25615;SDS011;13482;48.234;13.006;2024-02-28T10:27:01;17.50;;;11.35;;
25615;SDS011;13482;48.234;13.006;2024-02-28T10:29:29;19.35;;;12.45;;
25615;SDS011;13482;48.234;13.006;2024-02-28T10:31:59;19.42;;;12.45;;
25615;SDS011;13482;48.234;13.006;2024-02-28T10:34:29;17.73;;;11.40;;
25615;SDS011;13482;48.234;13.006;2024-02-28T10:36:57;17.73;;;12.02;;
25615;SDS011;13482;48.234;13.006;2024-02-28T10:39:26;20.02;;;12.25;;
25615;SDS011;13482;48.234;13.006;2024-02-28T10:41:56;19.23;;;12.40;;
25615;SDS011;13482;48.234;13.006;2024-02-28T10:44:27;18.35;;;12.15;;
25615;SDS011;13482;48.234;13.006;2024-02-28T10:46:59;22.63;;;13.45;;
25615;SDS011;13482;48.234;13.006;2024-02-28T10:49:30;20.15;;;12.88;;
25615;SDS011;13482;48.234;13.006;2024-02-28T10:51:58;21.20;;;13.23;;
25615;SDS011;13482;48.234;13.006;2024-02-28T10:54:28;22.40;;;13.82;;
25615;SDS011;13482;48.234;13.006;2024-02-28T10:56:57;20.83;;;13.25;;
25615;SDS011;13482;48.234;13.006;2024-02-28T10:59:27;20.23;;;12.90;;
25615;SDS011;13482;48.234;13.006;2024-02-28T11:01:56;22.65;;;12.73;;
25615;SDS011;13482;48.234;13.006;2024-02-28T11:04:24;22.00;;;12.52;;
25615;SDS011;13482;48.234;13.006;2024-02-28T11:06:52;18.33;;;11.88;;
25615;SDS011;13482;48.234;13.006;2024-02-28T11:09:24;20.17;;;13.27;;
25615;SDS011;13482;48.234;13.006;2024-02-28T11:11:55;21.65;;;13.35;;
25615;SDS011;13482;48.234;13.006;2024-02-28T11:14:23;18.88;;;12.18;;
25615;SDS011;13482;48.234;13.006;2024-02-28T11:17:03;19.38;;;12.70;;
25615;SDS011;13482;48.234;13.006;2024-02-28T11:19:32;19.50;;;12.32;;
25615;SDS011;13482;48.234;13.006;2024-02-28T11:22:02;19.45;;;11.98;;
25615;SDS011;13482;48.234;13.006;2024-02-28T11:24:33;19.40;;;12.30;;
25615;SDS011;13482;48.234;13.006;2024-02-28T11:27:04;18.40;;;12.70;;
25615;SDS011;13482;48.234;13.006;2024-02-28T11:29:33;20.08;;;13.27;;
25615;SDS011;13482;48.234;13.006;2024-02-28T11:32:01;27.48;;;13.80;;
25615;SDS011;13482;48.234;13.006;2024-02-28T11:34:28;19.80;;;12.80;;
25615;SDS011;13482;48.234;13.006;2024-02-28T11:36:55;24.13;;;14.65;;
25615;SDS011;13482;48.234;13.006;2024-02-28T11:39:26;21.17;;;14.07;;
25615;SDS011;13482;48.234;13.006;2024-02-28T11:41:53;22.15;;;14.75;;
25615;SDS011;13482;48.234;13.006;2024-02-28T11:44:24;23.60;;;14.73;;
25615;SDS011;13482;48.234;13.006;2024-02-28T11:46:52;22.70;;;14.10;;
25615;SDS011;13482;48.234;13.006;2024-02-28T11:49:20;21.15;;;13.93;;
25615;SDS011;13482;48.234;13.006;2024-02-28T11:51:48;19.58;;;13.43;;
25615;SDS011;13482;48.234;13.006;2024-02-28T11:54:16;23.83;;;14.27;;
25615;SDS011;13482;48.234;13.006;2024-02-28T11:56:46;23.75;;;15.35;;
25615;SDS011;13482;48.234;13.006;2024-02-28T11:59:15;20.35;;;13.85;;
25615;SDS011;13482;48.234;13.006;2024-02-28T12:01:44;19.70;;;13.07;;
25615;SDS011;13482;48.234;13.006;2024-02-28T12:04:13;21.70;;;13.63;;
25615;SDS011;13482;48.234;13.006;2024-02-28T12:06:41;22.75;;;14.50;;
25615;SDS011;13482;48.234;13.006;2024-02-28T12:09:10;22.15;;;14.05;;
25615;SDS011;13482;48.234;13.006;2024-02-28T12:11:53;20.83;;;13.70;;
25615;SDS011;13482;48.234;13.006;2024-02-28T12:14:21;22.50;;;14.73;;
25615;SDS011;13482;48.234;13.006;2024-02-28T12:17:07;21.42;;;13.77;;
25615;SDS011;13482;48.234;13.006;2024-02-28T12:20:18;23.88;;;14.57;;
25615;SDS011;13482;48.234;13.006;2024-02-28T12:22:48;25.52;;;16.02;;
25615;SDS011;13482;48.234;13.006;2024-02-28T12:25:21;25.13;;;16.10;;
25615;SDS011;13482;48.234;13.006;2024-02-28T12:27:48;22.67;;;15.15;;
25615;SDS011;13482;48.234;13.006;2024-02-28T12:30:16;43.55;;;28.42;;
25615;SDS011;13482;48.234;13.006;2024-02-28T12:54:14;23.48;;;16.65;;
25615;SDS011;13482;48.234;13.006;2024-02-28T12:56:45;22.85;;;16.05;;
25615;SDS011;13482;48.234;13.006;2024-02-28T12:59:12;26.08;;;20.15;;
25615;SDS011;13482;48.234;13.006;2024-02-28T13:01:43;23.75;;;16.88;;
25615;SDS011;13482;48.234;13.006;2024-02-28T13:04:14;23.48;;;18.58;;
25615;SDS011;13482;48.234;13.006;2024-02-28T13:06:45;30.38;;;25.63;;
25615;SDS011;13482;48.234;13.006;2024-02-28T13:09:12;25.55;;;19.90;;
25615;SDS011;13482;48.234;13.006;2024-02-28T13:11:41;23.20;;;18.10;;
25615;SDS011;13482;48.234;13.006;2024-02-28T13:14:09;21.60;;;16.75;;
25615;SDS011;13482;48.234;13.006;2024-02-28T13:16:37;21.58;;;15.18;;
25615;SDS011;13482;48.234;13.006;2024-02-28T13:19:08;18.38;;;12.77;;
25615;SDS011;13482;48.234;13.006;2024-02-28T13:21:36;19.10;;;13.63;;
25615;SDS011;13482;48.234;13.006;2024-02-28T13:24:25;18.23;;;12.60;;
25615;SDS011;13482;48.234;13.006;2024-02-28T13:26:56;17.25;;;11.82;;
25615;SDS011;13482;48.234;13.006;2024-02-28T13:29:37;33.20;;;21.75;;
25615;SDS011;13482;48.234;13.006;2024-02-28T13:32:07;44.30;;;30.00;;
25615;SDS011;13482;48.234;13.006;2024-02-28T13:34:35;53.22;;;36.88;;
25615;SDS011;13482;48.234;13.006;2024-02-28T13:37:03;52.63;;;39.38;;
25615;SDS011;13482;48.234;13.006;2024-02-28T13:39:31;68.55;;;53.47;;
25615;SDS011;13482;48.234;13.006;2024-02-28T13:42:02;46.00;;;36.28;;
25615;SDS011;13482;48.234;13.006;2024-02-28T13:44:33;34.77;;;26.90;;
25615;SDS011;13482;48.234;13.006;2024-02-28T13:47:01;57.50;;;51.10;;
25615;SDS011;13482;48.234;13.006;2024-02-28T13:49:29;40.03;;;33.88;;
25615;SDS011;13482;48.234;13.006;2024-02-28T13:51:57;32.72;;;25.17;;
25615;SDS011;13482;48.234;13.006;2024-02-28T13:54:24;26.90;;;20.08;;
25615;SDS011;13482;48.234;13.006;2024-02-28T13:56:54;21.60;;;16.50;;
25615;SDS011;13482;48.234;13.006;2024-02-28T13:59:22;19.48;;;14.82;;
25615;SDS011;13482;48.234;13.006;2024-02-28T14:01:50;19.70;;;13.88;;
25615;SDS011;13482;48.234;13.006;2024-02-28T14:04:18;20.05;;;13.57;;
25615;SDS011;13482;48.234;13.006;2024-02-28T14:06:48;20.08;;;13.10;;
25615;SDS011;13482;48.234;13.006;2024-02-28T14:09:16;19.10;;;13.25;;
25615;SDS011;13482;48.234;13.006;2024-02-28T14:11:43;19.30;;;11.93;;
25615;SDS011;13482;48.234;13.006;2024-02-28T14:14:11;17.38;;;12.30;;
25615;SDS011;13482;48.234;13.006;2024-02-28T14:16:40;19.52;;;12.40;;
25615;SDS011;13482;48.234;13.006;2024-02-28T14:19:09;17.08;;;12.60;;
25615;SDS011;13482;48.234;13.006;2024-02-28T14:21:37;19.35;;;12.77;;
25615;SDS011;13482;48.234;13.006;2024-02-28T14:24:07;17.55;;;12.55;;
25615;SDS011;13482;48.234;13.006;2024-02-28T14:26:35;18.80;;;13.35;;
25615;SDS011;13482;48.234;13.006;2024-02-28T14:29:05;21.95;;;15.00;;
25615;SDS011;13482;48.234;13.006;2024-02-28T14:31:34;20.00;;;14.70;;
25615;SDS011;13482;48.234;13.006;2024-02-28T14:34:02;19.73;;;14.65;;
25615;SDS011;13482;48.234;13.006;2024-02-28T14:36:32;19.75;;;13.63;;
25615;SDS011;13482;48.234;13.006;2024-02-28T14:38:59;21.15;;;14.65;;
25615;SDS011;13482;48.234;13.006;2024-02-28T14:41:27;21.98;;;14.60;;
25615;SDS011;13482;48.234;13.006;2024-02-28T14:43:56;22.95;;;14.10;;
25615;SDS011;13482;48.234;13.006;2024-02-28T14:46:23;19.30;;;13.00;;
25615;SDS011;13482;48.234;13.006;2024-02-28T14:48:51;20.90;;;13.43;;
25615;SDS011;13482;48.234;13.006;2024-02-28T14:51:19;18.85;;;13.45;;